Alden, MN (56009)

2:45 AM CDT on March 27, 2015 (GMT -0500)
15797 600th Ave (Baroda) | | Change Station
CLOSE
Current Station
Personal Weather Station
Location: Wells, MN
Elevation: 1230 ft
Nearby Weather Stations

Elev 1230 ft 43.71 °N, 93.67 °W | Updated 4 minutes ago

Clear
Clear
21.2 °F
Feels Like 13 °F
N
6.0
Wind Variable Wind from North
Gusts 6.0 mph

Today
High -- | Low -- °F
--% Chance of Precip.
Yesterday
High -- | Low -- °F
Precip. -- in
7:05 AM 7:34 PM
Waxing Crescent, 50% visible
Pressure 30.19 in
Visibility 10.0 miles
Clouds Clear
Windchill 13 °F
Dew Point 17 °F
Humidity 85%
Rainfall 0.00 in
Snow Depth Not available.
UV 0 out of 12
Pollen 1.60 out of 12
Air Quality Not available.
Flu Activity Not available.
METAR KAEL 270721Z AUTO 35005KT 10SM CLR M06/M09 A3019 RMK AO2

More Conditions Fewer Conditions

Pressure 30.19 in
Visibility 10.0 miles
Clouds Clear
Windchill 13 °F
Dew Point 17 °F
Humidity 85%
Rainfall 0.00 in
Snow Depth Not available.
UV 0 out of 12
Pollen 1.60 out of 12
Air Quality Not available.
Flu Activity Not available.
METAR KAEL 270721Z AUTO 35005KT 10SM CLR M06/M09 A3019 RMK AO2

More Conditions Fewer Conditions

10-Day Weather Forecast

Almanac

Astronomy

Mar. 27, 2015 Rise Set
Actual Time
Civil Twilight
Nautical Twilight
Astronomical Twilight
Moon
Length of Visible Light
Length of Day
Tomorrow will be .
, % of the Moon is Illuminated

Today's Extremes

State Highs State Lows

Community

WunderPhotos

Upload Photos

1,808,702 photos uploaded!

WunderBlogs® & News

Nearby

Air Quality

  Air Quality AQ Index Pollutant
Not available.

Snow Depth

Station Depth Elevation

Earthquake Activity

City Distance Mag. Time & Date
Minimum magnitude displayed is 2.5.

Coastal Water Temperatures

Place Temperature

Stations

Nearby Weather Stations

Station Location Temp. Windchill Dew Point Humidity Wind Precip. Elev Updated Type